Home   Weather   USA   Houston   Past weeks
Flag for USA

Past Weather in Houston, Texas, USA — February 2022

Currently: 57 °F. Passing clouds. (Weather station: Houston Hobby Airport, USA). See more current weather

February 2022 Weather in Houston — Graph

°F

High & Low Weather Summary for February 2022

 TemperatureHumidityPressure
High82 °F (Feb 21, 1:53 pm)100% (Feb 1, 12:53 am)30.64 "Hg (Feb 1, 12:53 am)
Low27 °F (Feb 4, 5:53 am)19% (Feb 8, 2:53 pm)29.77 "Hg (Feb 2, 7:17 pm)
Average53 °F72%30.18 "Hg
* Reported Feb 1 12:53 am — Feb 28 11:53 pm, Houston. Weather by CustomWeather, © 2022

Note: Actual official high and low records may vary slightly from our data, if they occured in-between our weather recording intervals... More about our weather records

Houston Weather History for February 1, 2022

Scroll right to see more
 ConditionsComfort  
Time TempWeatherWind HumidityBarometerVisibility
12:53 am
Tue, Feb 1
58 °FLight rain. Fog.9 mph100%29.90 "Hg6 mi
2:11 am59 °FLow clouds.15 mph96%29.82 "Hg10 mi
2:53 am59 °FLow clouds.15 mph96%29.83 "Hg10 mi
3:53 am60 °FLow clouds.12 mph96%29.84 "Hg9 mi
4:53 am60 °FLow clouds.5 mph96%29.84 "Hg10 mi
5:53 am61 °FMostly cloudy.8 mph93%29.83 "Hg10 mi
6:53 am61 °FMostly cloudy.10 mph90%29.84 "Hg10 mi
7:53 am60 °FFog.9 mph93%29.85 "Hg6 mi
8:21 am60 °FLight rain. Fog.10 mph96%29.85 "Hg3 mi
8:53 am61 °FBroken clouds.10 mph93%29.86 "Hg9 mi
9:11 am62 °FScattered clouds.10 mph90%29.85 "Hg10 mi
9:29 am62 °FBroken clouds.13 mph86%29.85 "Hg10 mi
9:53 am62 °FMostly cloudy.12 mph86%29.87 "Hg8 mi
10:53 am61 °FLow clouds.10 mph90%29.88 "Hg10 mi
11:12 am62 °FMore clouds than sun.7 mph86%29.86 "Hg10 mi
11:53 am63 °FMore clouds than sun.8 mph84%29.86 "Hg10 mi
12:53 pm62 °FOvercast.7 mph86%29.83 "Hg8 mi
1:18 pm62 °FOvercast.3 mph86%29.81 "Hg7 mi
1:53 pm62 °FOvercast.No wind86%29.82 "Hg7 mi
2:34 pm65 °FBroken clouds.3 mph78%29.79 "Hg8 mi
2:53 pm64 °FScattered clouds.3 mph84%29.80 "Hg9 mi
3:53 pm67 °FScattered clouds.3 mph71%29.78 "Hg10 mi
4:53 pm65 °FScattered clouds.6 mph73%29.78 "Hg10 mi
5:53 pm65 °FPartly sunny.3 mph76%29.80 "Hg10 mi
6:53 pm64 °FOvercast.5 mph78%29.81 "Hg10 mi
7:53 pm62 °FOvercast.10 mph86%29.83 "Hg10 mi
8:53 pm59 °FPassing clouds.7 mph93%29.84 "Hg10 mi
9:53 pm56 °FPassing clouds.5 mph100%29.87 "Hg8 mi
10:20 pm57 °FFog.7 mph96%29.85 "Hg1 mi
10:53 pm56 °FFog.7 mph100%29.87 "Hg0 mi
11:53 pm57 °FFog.No wind100%29.87 "Hg0 mi
Weather by CustomWeather, © 2022

See weather overview